METAR UND TAF INFORMATION
EDDR 180750Z 26005KT 9999 FEW008 BKN027 M01/M02 Q1018 NOSIG

 FLUGHAFENKARTE

 RUNWAY INFORMATION
Runway 09 Runway length 6562 ft Runway width 148 ft
Runway elevation 1022 ft Runway displaced threshold 86 ft Runway heading 87
Runway 27 Runway length 6562 ft Runway width 148 ft
Runway elevation 1056 ft Runway displaced threshold 0 ft Runway heading 267
Runway 09L Runway length 1788 ft Runway width 164 ft
Runway elevation 0 ft Runway displaced threshold 0 ft Runway heading 88
Runway 27R Runway length 1788 ft Runway width 164 ft
Runway elevation 0 ft Runway displaced threshold 0 ft Runway heading 268

 AIRPORT FREQUENCIES
Type AFIS Name LANGEN INF Frequency 123.525 MHZ
Type ATIS Name ATIS Frequency 125.3 MHZ
Type RDR Name LANGEN RAD Frequency 129.675 MHZ
Type TWR Name TWR Frequency 118.35 MHZ

 AIRPORT NEAR NAVIGATION AIDS
Type DME Name Saarbrucken Frequency 116750 KHZ
Type NDB Name Saarbrucken Frequency 343 KHZ
Type NDB Name Ensheim Frequency 360 KHZ



Version 5.0.0: Changelog

Impressum | Datenschutzerklärung

Virtual Airlines Manager